createdAt,value
2023-02-05T00:00:52.557Z,3.60
2023-02-05T00:03:20.767Z,5.60
2023-02-05T00:05:49.313Z,4.50
2023-02-05T00:08:18.102Z,5.90
2023-02-05T00:10:52.219Z,3.80
2023-02-05T00:13:23.973Z,3.60
2023-02-05T00:18:21.549Z,3.50
2023-02-05T00:20:50.241Z,4.20
2023-02-05T00:23:18.614Z,4.80
2023-02-05T00:25:47.408Z,4.40
2023-02-05T00:28:15.649Z,3.40
2023-02-05T00:30:44.004Z,6.10
2023-02-05T00:33:12.458Z,2.90
2023-02-05T00:35:43.380Z,3.70
2023-02-05T00:38:12.636Z,4.40
2023-02-05T00:40:41.162Z,3.70
2023-02-05T00:43:11.053Z,4.50
2023-02-05T00:45:39.558Z,4.70
2023-02-05T00:48:08.147Z,4.60
2023-02-05T00:50:36.522Z,4.20
2023-02-05T00:53:06.861Z,3.70
2023-02-05T00:55:36.543Z,3.90
2023-02-05T00:58:05.037Z,3.20
2023-02-05T01:00:34.340Z,4.70
2023-02-05T01:03:02.620Z,4.00
2023-02-05T01:05:31.086Z,4.40
2023-02-05T01:07:59.788Z,4.80
2023-02-05T01:10:28.067Z,4.00
2023-02-05T01:12:56.451Z,4.10
2023-02-05T01:15:25.232Z,4.20
2023-02-05T01:17:53.825Z,3.80
2023-02-05T01:20:22.612Z,4.30
2023-02-05T01:22:50.987Z,3.90
2023-02-05T01:25:19.781Z,3.70
2023-02-05T01:27:48.172Z,3.60
2023-02-05T01:30:17.188Z,4.20
2023-02-05T01:32:45.936Z,4.20
2023-02-05T01:35:14.830Z,4.50
2023-02-05T01:37:43.108Z,4.30
2023-02-05T01:40:16.089Z,4.30
2023-02-05T01:42:44.570Z,3.60
2023-02-05T01:45:22.194Z,3.80
2023-02-05T01:47:53.101Z,4.50
2023-02-05T01:50:32.910Z,3.50
2023-02-05T01:53:06.369Z,4.10
2023-02-05T01:55:36.800Z,4.10
2023-02-05T01:58:05.473Z,3.50
2023-02-05T02:00:34.042Z,5.60
2023-02-05T02:03:02.524Z,5.50
2023-02-05T02:05:31.550Z,4.70
2023-02-05T02:08:00.211Z,5.60
2023-02-05T02:10:29.019Z,3.50
2023-02-05T02:12:58.321Z,4.20
2023-02-05T02:15:27.140Z,4.70
2023-02-05T02:18:21.148Z,3.50
2023-02-05T02:20:52.640Z,4.50
2023-02-05T02:24:01.087Z,4.00
2023-02-05T02:26:33.703Z,4.90
2023-02-05T02:29:03.728Z,4.70
2023-02-05T02:31:35.627Z,3.90
2023-02-05T02:34:14.697Z,3.50
2023-02-05T02:36:47.688Z,4.40
2023-02-05T02:39:28.199Z,5.70
2023-02-05T02:42:05.514Z,3.60
2023-02-05T02:44:49.236Z,4.30
2023-02-05T02:47:26.150Z,4.00
2023-02-05T02:50:00.473Z,4.00
2023-02-05T02:52:30.568Z,4.70
2023-02-05T02:55:00.907Z,3.90
2023-02-05T02:57:29.906Z,4.50
2023-02-05T03:00:00.100Z,3.60
2023-02-05T03:02:31.569Z,2.90
2023-02-05T03:05:04.454Z,5.50
2023-02-05T03:07:38.674Z,3.90
2023-02-05T03:10:07.438Z,4.70
2023-02-05T03:12:35.820Z,5.10
2023-02-05T03:15:04.888Z,4.10
2023-02-05T03:17:34.933Z,5.20
2023-02-05T03:20:17.544Z,4.00
2023-02-05T03:22:46.131Z,3.90
2023-02-05T03:25:15.933Z,3.60
2023-02-05T03:27:47.181Z,3.50
2023-02-05T03:30:15.777Z,3.90
2023-02-05T03:33:09.328Z,3.90
2023-02-05T03:35:44.685Z,4.10
2023-02-05T03:38:16.634Z,4.60
2023-02-05T03:41:00.375Z,4.80
2023-02-05T03:43:33.928Z,4.30
2023-02-05T03:46:11.690Z,4.10
2023-02-05T03:49:15.073Z,5.70
2023-02-05T03:51:51.763Z,4.20
2023-02-05T03:54:41.547Z,5.10
2023-02-05T03:57:17.722Z,8.50
2023-02-05T03:59:46.782Z,5.00
2023-02-05T04:04:49.788Z,4.60
2023-02-05T04:07:18.676Z,4.70
2023-02-05T04:09:49.818Z,5.50
2023-02-05T04:12:18.202Z,4.70
2023-02-05T04:14:46.781Z,5.30
2023-02-05T04:17:15.368Z,5.90
2023-02-05T04:19:43.960Z,4.90
2023-02-05T04:22:13.147Z,5.60
2023-02-05T04:24:44.495Z,3.50
2023-02-05T04:27:13.869Z,4.30
2023-02-05T04:29:42.176Z,3.90
2023-02-05T04:32:10.762Z,4.70
2023-02-05T04:34:39.141Z,6.40
2023-02-05T04:37:08.750Z,4.50
2023-02-05T04:39:37.543Z,4.10
2023-02-05T04:42:06.141Z,3.90
2023-02-05T04:44:34.406Z,4.80
2023-02-05T04:47:02.888Z,4.60
2023-02-05T04:49:33.528Z,4.30
2023-02-05T04:52:01.996Z,4.50
2023-02-05T04:54:30.581Z,4.50
2023-02-05T04:56:58.755Z,4.40
2023-02-05T04:59:27.441Z,4.30
2023-02-05T05:01:56.538Z,4.30
2023-02-05T05:04:24.815Z,5.90
2023-02-05T05:06:53.003Z,5.40
2023-02-05T05:09:24.341Z,5.20
2023-02-05T05:11:54.579Z,8.60
2023-02-05T05:14:23.221Z,6.40
2023-02-05T05:16:51.565Z,5.10
2023-02-05T05:19:19.949Z,5.00
2023-02-05T05:21:48.469Z,4.50
2023-02-05T05:24:17.155Z,4.90
2023-02-05T05:26:46.870Z,6.10
2023-02-05T05:29:15.559Z,5.00
2023-02-05T05:31:43.951Z,6.80
2023-02-05T05:34:12.518Z,6.90
2023-02-05T05:36:43.809Z,4.80
2023-02-05T05:39:31.084Z,6.90
2023-02-05T05:42:19.739Z,7.20
2023-02-05T05:44:52.351Z,7.20
2023-02-05T05:47:20.802Z,5.40
2023-02-05T05:49:48.975Z,5.60
2023-02-05T05:52:17.575Z,5.80
2023-02-05T05:54:47.267Z,5.10
2023-02-05T05:57:15.408Z,5.70
2023-02-05T05:59:43.736Z,6.30
2023-02-05T06:02:12.671Z,6.10
2023-02-05T06:04:40.920Z,6.50
2023-02-05T06:07:09.178Z,11.20
2023-02-05T06:09:38.377Z,5.30
2023-02-05T06:12:11.647Z,10.40
2023-02-05T06:17:09.937Z,6.30
2023-02-05T06:19:38.263Z,7.30
2023-02-05T06:22:06.853Z,4.90
2023-02-05T06:24:37.070Z,6.90
2023-02-05T06:27:05.347Z,5.70
2023-02-05T06:29:34.750Z,4.70
2023-02-05T06:32:03.154Z,6.80
2023-02-05T06:34:31.816Z,6.70
2023-02-05T06:37:00.326Z,6.00
2023-02-05T06:39:30.112Z,5.60
2023-02-05T06:41:58.490Z,7.40
2023-02-05T06:44:26.993Z,5.90
2023-02-05T06:46:55.247Z,5.80
2023-02-05T06:49:26.393Z,5.30
2023-02-05T06:52:00.302Z,5.60
2023-02-05T06:54:28.988Z,6.20
2023-02-05T06:56:57.581Z,7.50
2023-02-05T06:59:27.251Z,7.20
2023-02-05T07:01:56.792Z,5.80
2023-02-05T07:04:27.117Z,4.80
2023-02-05T07:06:55.703Z,5.20
2023-02-05T07:09:25.309Z,5.50
2023-02-05T07:11:54.004Z,8.50
2023-02-05T07:14:22.990Z,6.80
2023-02-05T07:16:52.189Z,5.70
2023-02-05T07:19:20.670Z,5.10
2023-02-05T07:21:49.259Z,5.50
2023-02-05T07:24:17.839Z,6.40
2023-02-05T07:26:46.255Z,6.90
2023-02-05T07:29:14.602Z,6.10
2023-02-05T07:31:46.091Z,6.20
2023-02-05T07:34:26.510Z,6.50
2023-02-05T07:36:57.860Z,5.40
2023-02-05T07:41:57.928Z,4.80
2023-02-05T07:44:33.951Z,6.00
2023-02-05T07:47:02.431Z,4.90
2023-02-05T07:49:30.810Z,5.90
2023-02-05T07:51:59.500Z,6.70
2023-02-05T07:54:27.886Z,5.40
2023-02-05T07:56:56.777Z,5.70
2023-02-05T07:59:27.908Z,5.50
2023-02-05T08:01:56.495Z,6.20
2023-02-05T08:04:25.027Z,5.80
2023-02-05T08:06:53.864Z,6.60
2023-02-05T08:09:31.463Z,5.90
2023-02-05T08:11:59.942Z,6.00
2023-02-05T08:14:32.331Z,5.40
2023-02-05T08:17:01.009Z,5.60
2023-02-05T08:19:29.791Z,5.70
2023-02-05T08:21:58.793Z,5.20
2023-02-05T08:24:36.381Z,12.20
2023-02-05T08:27:14.599Z,5.10
2023-02-05T08:29:48.211Z,5.70
2023-02-05T08:32:17.396Z,4.90
2023-02-05T08:34:45.565Z,5.80
2023-02-05T08:37:14.353Z,7.10
2023-02-05T08:39:43.048Z,7.10
2023-02-05T08:42:11.214Z,5.20
2023-02-05T08:44:39.597Z,6.30
2023-02-05T08:47:08.077Z,6.10
2023-02-05T08:49:38.070Z,6.50
2023-02-05T08:52:06.885Z,6.50
2023-02-05T08:54:35.384Z,6.30
2023-02-05T08:57:03.950Z,6.10
2023-02-05T08:59:32.433Z,4.90
2023-02-05T09:02:01.428Z,4.90
2023-02-05T09:04:29.820Z,5.60
2023-02-05T09:06:58.282Z,6.30
2023-02-05T09:09:27.481Z,7.20
2023-02-05T09:11:55.991Z,6.20
2023-02-05T09:14:27.724Z,4.60
2023-02-05T09:16:56.576Z,5.30
2023-02-05T09:19:27.859Z,5.30
2023-02-05T09:22:04.652Z,5.20
2023-02-05T09:24:41.888Z,6.40
2023-02-05T09:27:14.503Z,4.80
2023-02-05T09:29:45.757Z,5.00
2023-02-05T09:32:14.453Z,5.60
2023-02-05T09:34:42.919Z,5.00
2023-02-05T09:37:11.407Z,5.50
2023-02-05T09:42:45.638Z,5.80
2023-02-05T09:45:33.044Z,5.30
2023-02-05T09:48:38.617Z,5.20
2023-02-05T09:51:31.060Z,5.20
2023-02-05T09:54:04.354Z,6.20
2023-02-05T09:56:34.336Z,5.20
2023-02-05T09:59:13.556Z,5.80
2023-02-05T10:01:58.721Z,4.70
2023-02-05T10:04:28.016Z,6.20
2023-02-05T10:07:38.530Z,5.50
2023-02-05T10:10:18.995Z,5.50
2023-02-05T10:12:56.689Z,5.60
2023-02-05T10:15:43.574Z,5.20
2023-02-05T10:19:06.803Z,5.90
2023-02-05T10:24:19.533Z,7.00
2023-02-05T10:27:12.493Z,5.80
2023-02-05T10:29:52.857Z,5.10
2023-02-05T10:32:23.560Z,7.20
2023-02-05T10:35:00.133Z,5.70
2023-02-05T10:37:43.695Z,6.60
2023-02-05T10:40:17.714Z,5.70
2023-02-05T10:43:02.059Z,5.20
2023-02-05T10:45:30.949Z,5.10
2023-02-05T10:48:14.185Z,5.20
2023-02-05T10:50:55.353Z,6.10
2023-02-05T10:53:24.964Z,4.10
2023-02-05T10:55:53.751Z,5.30
2023-02-05T10:58:38.174Z,5.60
2023-02-05T11:01:21.159Z,5.70
2023-02-05T11:04:01.497Z,5.20
2023-02-05T11:06:40.440Z,7.20
2023-02-05T11:09:24.157Z,5.50
2023-02-05T11:11:57.351Z,5.80
2023-02-05T11:14:32.286Z,6.80
2023-02-05T11:17:21.137Z,6.00
2023-02-05T11:19:57.402Z,6.50
2023-02-05T11:22:32.651Z,6.30
2023-02-05T11:25:11.365Z,5.20
2023-02-05T11:28:04.041Z,3.90
2023-02-05T11:30:52.696Z,6.20
2023-02-05T11:33:28.235Z,5.30
2023-02-05T11:36:08.163Z,5.00
2023-02-05T11:38:46.882Z,4.70
2023-02-05T11:41:31.111Z,5.10
2023-02-05T11:44:00.581Z,5.90
2023-02-05T11:46:30.028Z,5.30
2023-02-05T11:48:59.657Z,6.80
2023-02-05T11:51:38.521Z,6.00
2023-02-05T11:54:32.090Z,6.70
2023-02-05T11:57:27.274Z,5.40
2023-02-05T12:00:08.499Z,5.10
2023-02-05T12:02:38.861Z,5.50
2023-02-05T12:05:15.060Z,6.80
2023-02-05T12:07:55.505Z,6.00
2023-02-05T12:10:44.199Z,5.80
2023-02-05T12:13:38.141Z,5.40
2023-02-05T12:16:34.412Z,6.20
2023-02-05T12:19:13.738Z,6.10
2023-02-05T12:22:00.221Z,5.90
2023-02-05T12:24:49.813Z,5.50
2023-02-05T12:27:26.988Z,6.00
2023-02-05T12:30:07.543Z,4.70
2023-02-05T12:32:39.264Z,4.70
2023-02-05T12:35:34.186Z,6.40
2023-02-05T12:38:32.536Z,5.60
2023-02-05T12:41:34.749Z,6.10
2023-02-05T12:44:36.614Z,6.00
2023-02-05T12:47:39.093Z,5.20
2023-02-05T12:50:19.874Z,6.10
2023-02-05T12:52:58.198Z,5.60
2023-02-05T12:56:00.254Z,5.70
2023-02-05T12:58:36.392Z,6.90
2023-02-05T13:01:08.644Z,5.40
2023-02-05T13:03:41.362Z,6.70
2023-02-05T13:06:37.084Z,6.10
2023-02-05T13:09:09.351Z,7.00
2023-02-05T13:11:41.085Z,7.20
2023-02-05T13:14:19.689Z,6.20
2023-02-05T13:17:00.438Z,7.30
2023-02-05T13:19:35.467Z,6.50
2023-02-05T13:22:28.610Z,6.00
2023-02-05T13:25:24.863Z,6.90
2023-02-05T13:28:16.518Z,7.00
2023-02-05T13:30:47.694Z,7.50
2023-02-05T13:33:16.620Z,6.40
2023-02-05T13:36:18.798Z,6.90
2023-02-05T13:38:59.253Z,6.70
2023-02-05T13:41:49.762Z,7.00
2023-02-05T13:44:37.073Z,6.60
2023-02-05T13:47:22.761Z,6.90
2023-02-05T13:50:23.609Z,6.10
2023-02-05T13:53:06.413Z,8.20
2023-02-05T13:56:20.977Z,6.20
2023-02-05T13:59:42.249Z,7.30
2023-02-05T14:02:27.675Z,7.00
2023-02-05T14:04:57.289Z,7.30
2023-02-05T14:07:54.468Z,7.70
2023-02-05T14:10:34.588Z,6.10
2023-02-05T14:13:19.508Z,6.20
2023-02-05T14:15:49.326Z,5.80
2023-02-05T14:18:40.279Z,7.10
2023-02-05T14:21:33.553Z,7.20
2023-02-05T14:24:23.872Z,5.90
2023-02-05T14:26:53.269Z,6.40
2023-02-05T14:29:48.458Z,6.50
2023-02-05T14:32:26.267Z,7.40
2023-02-05T14:35:49.221Z,5.70
2023-02-05T14:38:24.044Z,6.80
2023-02-05T14:41:13.395Z,7.20
2023-02-05T14:43:44.321Z,6.80
2023-02-05T14:46:25.902Z,8.30
2023-02-05T14:48:58.522Z,6.50
2023-02-05T14:51:29.672Z,6.50
2023-02-05T14:54:07.362Z,7.40
2023-02-05T14:56:48.440Z,7.60
2023-02-05T14:59:21.533Z,7.30
2023-02-05T15:01:54.417Z,9.10
2023-02-05T15:04:28.014Z,7.20
2023-02-05T15:06:56.757Z,6.40
2023-02-05T15:09:47.326Z,7.00
2023-02-05T15:12:50.490Z,6.90
2023-02-05T15:15:33.677Z,6.70
2023-02-05T15:18:24.439Z,7.50
2023-02-05T15:20:56.609Z,7.30
2023-02-05T15:23:41.055Z,6.20
2023-02-05T15:26:33.805Z,7.50
2023-02-05T15:29:12.732Z,7.40
2023-02-05T15:32:00.671Z,7.50
2023-02-05T15:34:38.187Z,6.90
2023-02-05T15:37:09.214Z,6.90
2023-02-05T15:39:52.641Z,7.50
2023-02-05T15:42:33.004Z,7.60
2023-02-05T15:45:40.886Z,7.50
2023-02-05T15:48:10.719Z,7.30
2023-02-05T15:50:48.980Z,7.50
2023-02-05T15:53:39.636Z,8.10
2023-02-05T15:56:40.169Z,8.20
2023-02-05T15:59:12.944Z,9.00
2023-02-05T16:01:48.471Z,8.50
2023-02-05T16:04:53.236Z,9.30
2023-02-05T16:07:41.004Z,7.60
2023-02-05T16:10:22.207Z,8.60
2023-02-05T16:13:02.848Z,8.50
2023-02-05T16:15:36.344Z,8.70
2023-02-05T16:18:06.136Z,7.20
2023-02-05T16:20:39.532Z,10.60
2023-02-05T16:24:06.246Z,7.80
2023-02-05T16:26:45.013Z,7.70
2023-02-05T16:29:25.595Z,9.30
2023-02-05T16:32:26.535Z,6.50
2023-02-05T16:34:55.018Z,9.40
2023-02-05T16:37:25.033Z,7.10
2023-02-05T16:39:54.470Z,8.60
2023-02-05T16:42:26.286Z,8.30
2023-02-05T16:48:21.982Z,23.10
2023-02-05T16:50:50.889Z,10.50
2023-02-05T16:53:27.097Z,9.10
2023-02-05T16:56:18.545Z,7.00
2023-02-05T16:58:52.069Z,7.60
2023-02-05T17:01:36.565Z,8.60
2023-02-05T17:04:05.598Z,8.40
2023-02-05T17:06:35.160Z,8.40
2023-02-05T17:09:05.255Z,8.00
2023-02-05T17:11:41.962Z,9.30
2023-02-05T17:14:21.138Z,9.30
2023-02-05T17:17:15.936Z,8.90
2023-02-05T17:19:44.630Z,9.20
2023-02-05T17:22:16.220Z,8.90
2023-02-05T17:24:49.438Z,9.10
2023-02-05T17:27:30.780Z,10.80
2023-02-05T17:30:55.719Z,8.70
2023-02-05T17:33:25.642Z,10.40
2023-02-05T17:35:53.975Z,6.80
2023-02-05T17:38:23.793Z,7.30
2023-02-05T17:41:12.046Z,8.40
2023-02-05T17:43:40.935Z,7.70
2023-02-05T17:46:14.166Z,7.30
2023-02-05T17:48:44.870Z,10.20
2023-02-05T17:51:20.602Z,11.60
2023-02-05T17:53:49.605Z,6.80
2023-02-05T17:56:19.578Z,8.60
2023-02-05T17:58:49.324Z,7.10
2023-02-05T18:01:18.269Z,7.40
2023-02-05T18:03:46.597Z,6.00
2023-02-05T18:06:16.887Z,6.00
2023-02-05T18:08:45.501Z,6.20
2023-02-05T18:11:14.291Z,5.00
2023-02-05T18:13:42.980Z,4.70
2023-02-05T18:16:12.820Z,4.40
2023-02-05T18:18:43.319Z,5.30
2023-02-05T18:21:11.911Z,5.40
2023-02-05T18:23:40.671Z,5.80
2023-02-05T18:26:10.299Z,6.10
2023-02-05T18:28:38.681Z,4.40
2023-02-05T18:37:55.967Z,5.50
2023-02-05T18:40:25.678Z,7.50
2023-02-05T18:43:39.046Z,6.80
2023-02-05T18:46:17.789Z,5.50
2023-02-05T18:48:49.587Z,5.60
2023-02-05T18:51:19.711Z,4.80
2023-02-05T18:53:48.466Z,4.80
2023-02-05T18:56:19.177Z,5.30
2023-02-05T18:58:56.465Z,5.90
2023-02-05T19:01:25.032Z,8.00
2023-02-05T19:03:54.833Z,4.60
2023-02-05T19:06:23.202Z,4.30
2023-02-05T19:08:51.679Z,4.60
2023-02-05T19:11:24.316Z,6.10
2023-02-05T19:14:04.585Z,5.80
2023-02-05T19:16:33.219Z,5.60
2023-02-05T19:19:27.868Z,6.40
2023-02-05T19:25:39.042Z,5.50
2023-02-05T19:28:07.226Z,5.00
2023-02-05T19:30:36.576Z,5.50
2023-02-05T19:33:05.528Z,5.10
2023-02-05T19:35:34.205Z,4.40
2023-02-05T19:38:05.853Z,6.60
2023-02-05T19:40:35.461Z,6.20
2023-02-05T19:43:51.618Z,4.50
2023-02-05T19:46:25.610Z,5.10
2023-02-05T19:48:54.935Z,5.90
2023-02-05T19:51:24.332Z,6.10
2023-02-05T19:53:56.066Z,9.50
2023-02-05T19:56:24.647Z,6.70
2023-02-05T19:58:55.001Z,7.20
2023-02-05T20:01:25.931Z,7.10
2023-02-05T20:07:46.561Z,7.50
2023-02-05T20:10:15.249Z,7.20
2023-02-05T20:12:44.654Z,6.80
2023-02-05T20:15:13.768Z,7.10
2023-02-05T20:17:49.602Z,6.70
2023-02-05T20:20:32.613Z,7.10
2023-02-05T20:23:02.186Z,7.00
2023-02-05T20:29:56.140Z,6.50
2023-02-05T20:32:25.069Z,7.20
2023-02-05T20:34:53.389Z,6.80
2023-02-05T20:37:22.555Z,8.00
2023-02-05T20:39:51.131Z,5.60
2023-02-05T20:44:48.093Z,6.60
2023-02-05T20:47:16.282Z,7.50
2023-02-05T20:50:09.223Z,8.50
2023-02-05T20:52:38.770Z,7.60
2023-02-05T21:02:37.724Z,7.30
2023-02-05T21:05:06.568Z,7.70
2023-02-05T21:07:36.282Z,8.10
2023-02-05T21:10:06.041Z,7.20
2023-02-05T21:12:34.413Z,6.30
2023-02-05T21:15:02.594Z,7.30
2023-02-05T21:17:32.198Z,7.10
2023-02-05T21:20:02.363Z,7.50
2023-02-05T21:22:32.279Z,9.40
2023-02-05T21:25:01.337Z,7.60
2023-02-05T21:27:30.112Z,6.20
2023-02-05T21:29:58.700Z,6.60
2023-02-05T21:32:27.282Z,7.00
2023-02-05T21:34:55.765Z,6.10
2023-02-05T21:37:23.937Z,7.00
2023-02-05T21:39:52.987Z,7.40
2023-02-05T21:42:23.665Z,5.70
2023-02-05T21:44:53.989Z,6.70
2023-02-05T21:47:22.473Z,7.20
2023-02-05T21:49:50.751Z,6.40
2023-02-05T21:52:21.892Z,7.60
2023-02-05T21:54:50.997Z,7.40
2023-02-05T21:57:19.475Z,6.90
2023-02-05T21:59:51.847Z,7.40
2023-02-05T22:02:20.295Z,8.30
2023-02-05T22:04:49.015Z,8.40
2023-02-05T22:07:17.192Z,8.50
2023-02-05T22:09:48.028Z,8.00
2023-02-05T22:12:16.409Z,8.60
2023-02-05T22:14:44.787Z,9.00
2023-02-05T22:17:15.519Z,9.60
2023-02-05T22:19:48.200Z,9.40
2023-02-05T22:22:16.589Z,9.70
2023-02-05T22:24:46.606Z,10.70
2023-02-05T22:27:15.898Z,11.70
2023-02-05T22:29:44.074Z,9.90
2023-02-05T22:32:12.556Z,9.20
2023-02-05T22:34:43.256Z,10.60
2023-02-05T22:37:12.282Z,10.30
2023-02-05T22:39:40.660Z,8.60
2023-02-05T22:42:08.989Z,9.80
2023-02-05T22:44:38.033Z,9.40
2023-02-05T22:47:06.416Z,12.10
2023-02-05T22:49:34.591Z,10.60
2023-02-05T22:52:02.967Z,10.70
2023-02-05T22:54:31.759Z,9.00
2023-02-05T22:57:00.652Z,9.40
2023-02-05T23:03:08.011Z,10.30
2023-02-05T23:05:38.133Z,8.50
2023-02-05T23:08:07.506Z,9.70
2023-02-05T23:10:36.395Z,9.20
2023-02-05T23:13:05.011Z,9.90
2023-02-05T23:15:35.553Z,10.40
2023-02-05T23:18:04.911Z,12.40
2023-02-05T23:20:35.132Z,9.90
2023-02-05T23:23:05.251Z,9.80
2023-02-05T23:25:37.844Z,10.20
2023-02-05T23:28:06.341Z,10.10
2023-02-05T23:30:35.914Z,14.50
2023-02-05T23:33:05.132Z,10.20
2023-02-05T23:35:33.943Z,9.10
2023-02-05T23:38:02.697Z,8.70
2023-02-05T23:40:31.178Z,11.60
2023-02-05T23:42:59.667Z,10.70
2023-02-05T23:45:30.190Z,11.90
2023-02-05T23:48:00.414Z,12.20
2023-02-05T23:50:28.724Z,11.40
2023-02-05T23:52:57.377Z,9.00
2023-02-05T23:55:25.964Z,10.40
2023-02-05T23:57:54.341Z,10.80
